Icon-app
Strava
Free app for iPhone
Download

MTB Strava Segment Challenge

Ride Segment Monterey, CA
  • 0.4km
    Distance
  • 9%
    Avg Grade
  • 244m
    Lowest Elev
  • 284m
    Highest Elev
  • 40m
    Elev Difference
  • 3,036 Attempts By 1,599 People

Men's Leaderboard

Rank Name Speed Power Time
1 Scott S. 18.6km/h 583W 1:22
2 Chad Charlesworth 16.6km/h 505W 1:32
3 Tim G. 16.2km/h 499W 1:34
4 Jean Louis Bourdevaire /. 15.5km/h 270W 1:38
5 Imeh N. 15.4km/h 355W 1:39
5 Alfred P. 15.4km/h 335W 1:39
7 Joe Pirelli 15.2km/h 395W 1:40
7 Greg Hillson : Bar Fly 15.2km/h 384W Powermeter 1:40
7 Sean Bennett 15.2km/h 272W 1:40
10 Rick Cotter 15.1km/h - 1:41
10 Kurt Wolfgang 15.1km/h 377W 1:41
12 Steve H. 14.9km/h 382W 1:42
12 Raphael Auclair 14.9km/h 373W 1:42
12 Tofor Lewis 14.9km/h 315W 1:42
12 Burke Kennedy 14.9km/h 321W 1:42
16 Brian G. 14.8km/h 308W 1:43
16 D L. 14.8km/h 341W 1:43
16 Dax Massey 14.8km/h 313W 1:43
19 Pain Train 14.6km/h 409W 1:44
19 Matt Adams 14.6km/h 358W 1:44

Join Strava to see the full leaderboard

Women's Leaderboard

Rank Name Speed Power Time
1 Chantel Duliba 10.9km/h 218W 2:20
2 Kris G. 10.6km/h 217W 2:23
3 Annie V. 10.6km/h 223W 2:24
4 C BaBomb 10.3km/h 220W 2:28
5 Caroline Dezendorf 10.2km/h - 2:30
6 Jane Kerner - Baghouse/Rock N' Road 10.1km/h 194W 2:31
6 Caro Gomez Villafañe 10.1km/h 180W 2:31
6 Tracy Gaucher 10.1km/h 129W 2:31
9 Maggie Yount 10.0km/h 165W 2:33
10 Amber B. 9.9km/h 211W Powermeter 2:34
11 Petra Kirberg 9.8km/h 190W 2:35
12 Lindsay C. 9.8km/h 174W 2:36
13 Beth Welliver 9.6km/h 176W 2:39
14 Julie S. 9.5km/h 135W 2:40
15 Naomi H. 9.5km/h 188W 2:41
15 lea davison 9.5km/h 202W 2:41
17 Cadence Lee 9.4km/h 184W 2:42
18 Pame H. 9.3km/h 129W 2:43
19 Ashley Albor 9.3km/h 162W 2:44
19 Iris Fox 9.3km/h 146W 2:44